Aérodrome :
LOGIN :

S'inscrire | Disclaimer

   EN    FR    IT 

 










Légende :    VFR   VFR Marginal   IFR   IFR Intensif   IFR Très Intensif
Visi : 
Plafond : 
>= 8 km
>= 3000ft
5 à 8 km
1000 à 3000 ft
1500m à 5 km
500 à 1000 ft
800 à 1500m
200 à 500 ft
< 800m
< 200 ft
Symboles :   Orages  Brouillard  Fortes neiges  Fortes précipitations  Vent > 20 kt
SIGMETs :   Divers  Orages  Givrage  Turbulence  Onde Orograph.  Cendres Volcan.






- Altitude de l'aérodrome : 308 ft
- Code IATA : MHG


EDFM - Mannheim-City

DERNIER METAR :
  • 031020Z VRB03KT CAVOK 26/11 Q1005

METARs EXPIRÉS :
  • 030950Z VRB02KT CAVOK 25/11 Q1006
  • 030920Z VRB03KT CAVOK 24/11 Q1006
  • 030850Z VRB02KT CAVOK 24/11 Q1006
  • 030820Z 18004KT 130V230 CAVOK 22/10 Q1006
  • 030750Z 16006KT 110V240 CAVOK 21/10 Q1007

TAF TAF EDFM
Valide du 03 à 09h jusqu'au 03 à 18h UTC


030800Z 0309/0318 18005KT CAVOK
PROB40
TEMPO 0313/0318 25020G35KT TSRA BKN060CB



MET'MAP, la Météo Aéronautique d'un coup d'oeil ! - Copyright ORBIFLY Décembre 2007 - Disclaimer

ORBIFLY MET'MAP TEAM :

Programmation & Développement : Alexandra Zaïnal
Sur une idée originale de : Baudouin d'Aumeries
Assistance à la programmation : Marc-Olivier Méhu
Soutien technique & logistique : Manuel Goepfert

Contact : metmap@orbifly.com




SOURCES & CREDITS :

   NOAA